sensor_id;sensor_type;location;lat;lon;timestamp;temperature;humidity
14577;DHT22;7375;46.072;14.470;2023-06-14T00:02:09;23.60;65.80
14577;DHT22;7375;46.072;14.470;2023-06-14T00:04:35;23.60;65.80
14577;DHT22;7375;46.072;14.470;2023-06-14T00:07:04;23.60;66.00
14577;DHT22;7375;46.072;14.470;2023-06-14T00:09:33;23.50;66.10
14577;DHT22;7375;46.072;14.470;2023-06-14T00:12:00;23.50;66.40
14577;DHT22;7375;46.072;14.470;2023-06-14T00:14:28;23.60;66.50
14577;DHT22;7375;46.072;14.470;2023-06-14T00:16:55;23.50;66.60
14577;DHT22;7375;46.072;14.470;2023-06-14T00:19:24;23.50;66.60
14577;DHT22;7375;46.072;14.470;2023-06-14T00:21:50;23.50;66.70
14577;DHT22;7375;46.072;14.470;2023-06-14T00:24:18;23.50;66.90
14577;DHT22;7375;46.072;14.470;2023-06-14T00:26:44;23.50;66.90
14577;DHT22;7375;46.072;14.470;2023-06-14T00:29:11;23.50;66.90
14577;DHT22;7375;46.072;14.470;2023-06-14T00:31:39;23.50;66.90
14577;DHT22;7375;46.072;14.470;2023-06-14T00:34:06;23.50;67.00
14577;DHT22;7375;46.072;14.470;2023-06-14T00:36:33;23.50;67.10
14577;DHT22;7375;46.072;14.470;2023-06-14T00:38:59;23.50;67.20
14577;DHT22;7375;46.072;14.470;2023-06-14T00:41:26;23.50;67.30
14577;DHT22;7375;46.072;14.470;2023-06-14T00:43:53;23.50;67.30
14577;DHT22;7375;46.072;14.470;2023-06-14T00:46:22;23.50;67.30
14577;DHT22;7375;46.072;14.470;2023-06-14T00:48:50;23.50;67.90
14577;DHT22;7375;46.072;14.470;2023-06-14T00:51:16;23.50;67.30
14577;DHT22;7375;46.072;14.470;2023-06-14T00:53:43;23.50;67.30
14577;DHT22;7375;46.072;14.470;2023-06-14T00:56:12;23.50;67.30
14577;DHT22;7375;46.072;14.470;2023-06-14T00:58:40;23.50;67.30
14577;DHT22;7375;46.072;14.470;2023-06-14T01:01:07;23.50;67.30
14577;DHT22;7375;46.072;14.470;2023-06-14T01:03:33;23.50;67.20
14577;DHT22;7375;46.072;14.470;2023-06-14T01:06:07;23.50;67.20
14577;DHT22;7375;46.072;14.470;2023-06-14T01:08:38;23.50;67.20
14577;DHT22;7375;46.072;14.470;2023-06-14T01:11:11;23.50;67.30
14577;DHT22;7375;46.072;14.470;2023-06-14T01:13:38;23.50;67.30
14577;DHT22;7375;46.072;14.470;2023-06-14T01:16:06;23.40;67.20
14577;DHT22;7375;46.072;14.470;2023-06-14T01:18:34;23.40;67.40
14577;DHT22;7375;46.072;14.470;2023-06-14T01:21:00;23.40;67.50
14577;DHT22;7375;46.072;14.470;2023-06-14T01:23:32;23.40;67.50
14577;DHT22;7375;46.072;14.470;2023-06-14T01:25:59;23.40;67.50
14577;DHT22;7375;46.072;14.470;2023-06-14T01:28:28;23.40;67.40
14577;DHT22;7375;46.072;14.470;2023-06-14T01:30:58;23.40;67.40
14577;DHT22;7375;46.072;14.470;2023-06-14T01:33:29;23.40;67.40
14577;DHT22;7375;46.072;14.470;2023-06-14T01:35:57;23.40;67.40
14577;DHT22;7375;46.072;14.470;2023-06-14T01:38:24;23.40;67.50
14577;DHT22;7375;46.072;14.470;2023-06-14T01:40:54;23.40;67.50
14577;DHT22;7375;46.072;14.470;2023-06-14T01:43:21;23.30;67.50
14577;DHT22;7375;46.072;14.470;2023-06-14T01:45:48;23.40;67.50
14577;DHT22;7375;46.072;14.470;2023-06-14T01:48:15;23.40;67.60
14577;DHT22;7375;46.072;14.470;2023-06-14T01:50:42;23.40;67.60
14577;DHT22;7375;46.072;14.470;2023-06-14T01:53:09;23.40;67.70
14577;DHT22;7375;46.072;14.470;2023-06-14T01:55:35;23.40;67.70
14577;DHT22;7375;46.072;14.470;2023-06-14T01:58:04;23.40;67.80
14577;DHT22;7375;46.072;14.470;2023-06-14T02:00:31;23.40;67.80
14577;DHT22;7375;46.072;14.470;2023-06-14T02:02:58;23.40;67.90
14577;DHT22;7375;46.072;14.470;2023-06-14T02:05:25;23.30;68.00
14577;DHT22;7375;46.072;14.470;2023-06-14T02:07:51;23.40;67.90
14577;DHT22;7375;46.072;14.470;2023-06-14T02:10:18;23.40;67.90
14577;DHT22;7375;46.072;14.470;2023-06-14T02:12:45;23.30;67.90
14577;DHT22;7375;46.072;14.470;2023-06-14T02:15:13;23.30;67.80
14577;DHT22;7375;46.072;14.470;2023-06-14T02:17:42;23.40;67.90
14577;DHT22;7375;46.072;14.470;2023-06-14T02:20:09;23.40;67.90
14577;DHT22;7375;46.072;14.470;2023-06-14T02:22:35;23.40;68.00
14577;DHT22;7375;46.072;14.470;2023-06-14T02:25:02;23.30;67.90
14577;DHT22;7375;46.072;14.470;2023-06-14T02:27:29;23.30;67.90
14577;DHT22;7375;46.072;14.470;2023-06-14T02:29:56;23.30;67.90
14577;DHT22;7375;46.072;14.470;2023-06-14T02:32:24;23.30;67.90
14577;DHT22;7375;46.072;14.470;2023-06-14T02:34:51;23.30;67.90
14577;DHT22;7375;46.072;14.470;2023-06-14T02:37:18;23.30;68.10
14577;DHT22;7375;46.072;14.470;2023-06-14T02:39:45;23.30;68.10
14577;DHT22;7375;46.072;14.470;2023-06-14T02:42:12;23.30;68.10
14577;DHT22;7375;46.072;14.470;2023-06-14T02:44:38;23.30;68.10
14577;DHT22;7375;46.072;14.470;2023-06-14T02:47:05;23.30;68.00
14577;DHT22;7375;46.072;14.470;2023-06-14T02:49:33;23.30;68.10
14577;DHT22;7375;46.072;14.470;2023-06-14T02:52:00;23.30;68.10
14577;DHT22;7375;46.072;14.470;2023-06-14T02:54:28;23.30;68.20
14577;DHT22;7375;46.072;14.470;2023-06-14T02:56:54;23.30;68.20
14577;DHT22;7375;46.072;14.470;2023-06-14T02:59:21;23.30;68.30
14577;DHT22;7375;46.072;14.470;2023-06-14T03:01:50;23.30;68.30
14577;DHT22;7375;46.072;14.470;2023-06-14T03:04:17;23.30;68.30
14577;DHT22;7375;46.072;14.470;2023-06-14T03:06:45;23.30;68.30
14577;DHT22;7375;46.072;14.470;2023-06-14T03:09:15;23.30;68.20
14577;DHT22;7375;46.072;14.470;2023-06-14T03:11:42;23.30;68.30
14577;DHT22;7375;46.072;14.470;2023-06-14T03:14:09;23.30;68.20
14577;DHT22;7375;46.072;14.470;2023-06-14T03:16:36;23.30;68.30
14577;DHT22;7375;46.072;14.470;2023-06-14T03:19:03;23.20;68.20
14577;DHT22;7375;46.072;14.470;2023-06-14T03:21:30;23.30;68.30
14577;DHT22;7375;46.072;14.470;2023-06-14T03:23:59;23.20;68.30
14577;DHT22;7375;46.072;14.470;2023-06-14T03:26:25;23.20;68.40
14577;DHT22;7375;46.072;14.470;2023-06-14T03:28:52;23.20;68.50
14577;DHT22;7375;46.072;14.470;2023-06-14T03:31:19;23.20;68.50
14577;DHT22;7375;46.072;14.470;2023-06-14T03:33:46;23.20;68.50
14577;DHT22;7375;46.072;14.470;2023-06-14T03:36:13;23.20;68.50
14577;DHT22;7375;46.072;14.470;2023-06-14T03:38:40;23.20;68.50
14577;DHT22;7375;46.072;14.470;2023-06-14T03:41:08;23.20;68.50
14577;DHT22;7375;46.072;14.470;2023-06-14T03:43:35;23.20;68.50
14577;DHT22;7375;46.072;14.470;2023-06-14T03:46:01;23.20;68.50
14577;DHT22;7375;46.072;14.470;2023-06-14T03:48:28;23.20;68.50
14577;DHT22;7375;46.072;14.470;2023-06-14T03:50:55;23.20;68.50
14577;DHT22;7375;46.072;14.470;2023-06-14T03:53:22;23.20;68.50
14577;DHT22;7375;46.072;14.470;2023-06-14T03:55:49;23.20;68.60
14577;DHT22;7375;46.072;14.470;2023-06-14T03:58:18;23.20;68.60
14577;DHT22;7375;46.072;14.470;2023-06-14T04:00:45;23.20;68.60
14577;DHT22;7375;46.072;14.470;2023-06-14T04:03:12;23.20;68.60
14577;DHT22;7375;46.072;14.470;2023-06-14T04:05:40;23.20;68.60
14577;DHT22;7375;46.072;14.470;2023-06-14T04:08:07;23.20;68.60
14577;DHT22;7375;46.072;14.470;2023-06-14T04:10:34;23.20;68.70
14577;DHT22;7375;46.072;14.470;2023-06-14T04:13:01;23.20;68.60
14577;DHT22;7375;46.072;14.470;2023-06-14T04:15:29;23.20;68.60
14577;DHT22;7375;46.072;14.470;2023-06-14T04:17:56;23.20;68.70
14577;DHT22;7375;46.072;14.470;2023-06-14T04:20:23;23.20;68.80
14577;DHT22;7375;46.072;14.470;2023-06-14T04:22:50;23.20;68.70
14577;DHT22;7375;46.072;14.470;2023-06-14T04:25:17;23.20;69.40
14577;DHT22;7375;46.072;14.470;2023-06-14T04:27:44;23.20;68.70
14577;DHT22;7375;46.072;14.470;2023-06-14T04:30:12;23.20;68.70
14577;DHT22;7375;46.072;14.470;2023-06-14T04:32:40;23.20;68.70
14577;DHT22;7375;46.072;14.470;2023-06-14T04:35:08;23.20;68.80
14577;DHT22;7375;46.072;14.470;2023-06-14T04:37:34;23.10;68.60
14577;DHT22;7375;46.072;14.470;2023-06-14T04:40:05;23.20;68.80
14577;DHT22;7375;46.072;14.470;2023-06-14T04:42:32;23.20;68.80
14577;DHT22;7375;46.072;14.470;2023-06-14T04:45:02;23.10;68.70
14577;DHT22;7375;46.072;14.470;2023-06-14T04:47:29;23.10;68.70
14577;DHT22;7375;46.072;14.470;2023-06-14T04:49:57;23.20;68.90
14577;DHT22;7375;46.072;14.470;2023-06-14T04:52:25;23.10;69.40
14577;DHT22;7375;46.072;14.470;2023-06-14T04:54:55;23.20;68.90
14577;DHT22;7375;46.072;14.470;2023-06-14T04:57:21;23.20;68.80
14577;DHT22;7375;46.072;14.470;2023-06-14T04:59:50;23.20;68.80
14577;DHT22;7375;46.072;14.470;2023-06-14T05:02:20;23.20;68.80
14577;DHT22;7375;46.072;14.470;2023-06-14T05:04:47;23.20;68.80
14577;DHT22;7375;46.072;14.470;2023-06-14T05:07:15;23.20;68.80
14577;DHT22;7375;46.072;14.470;2023-06-14T05:09:42;23.20;68.80
14577;DHT22;7375;46.072;14.470;2023-06-14T05:12:08;23.20;68.80
14577;DHT22;7375;46.072;14.470;2023-06-14T05:14:35;23.20;68.80
14577;DHT22;7375;46.072;14.470;2023-06-14T05:17:02;23.20;68.80
14577;DHT22;7375;46.072;14.470;2023-06-14T05:19:29;23.20;68.80
14577;DHT22;7375;46.072;14.470;2023-06-14T05:21:55;23.20;68.80
14577;DHT22;7375;46.072;14.470;2023-06-14T05:24:23;23.20;68.80
14577;DHT22;7375;46.072;14.470;2023-06-14T05:26:50;23.20;68.80
14577;DHT22;7375;46.072;14.470;2023-06-14T05:29:17;23.20;68.80
14577;DHT22;7375;46.072;14.470;2023-06-14T05:31:44;23.20;68.90
14577;DHT22;7375;46.072;14.470;2023-06-14T05:34:10;23.20;68.90
14577;DHT22;7375;46.072;14.470;2023-06-14T05:36:37;23.20;68.90
14577;DHT22;7375;46.072;14.470;2023-06-14T05:39:04;23.20;68.90
14577;DHT22;7375;46.072;14.470;2023-06-14T05:41:33;23.30;69.00
14577;DHT22;7375;46.072;14.470;2023-06-14T05:44:00;23.20;69.60
14577;DHT22;7375;46.072;14.470;2023-06-14T05:46:27;23.30;69.00
14577;DHT22;7375;46.072;14.470;2023-06-14T05:48:54;23.30;68.90
14577;DHT22;7375;46.072;14.470;2023-06-14T05:51:21;23.30;68.80
14577;DHT22;7375;46.072;14.470;2023-06-14T05:53:50;23.30;68.80
14577;DHT22;7375;46.072;14.470;2023-06-14T05:56:17;23.30;68.80
14577;DHT22;7375;46.072;14.470;2023-06-14T05:58:45;23.40;68.70
14577;DHT22;7375;46.072;14.470;2023-06-14T06:01:12;23.40;68.80
14577;DHT22;7375;46.072;14.470;2023-06-14T06:03:38;23.40;68.80
14577;DHT22;7375;46.072;14.470;2023-06-14T06:06:05;23.40;69.30
14577;DHT22;7375;46.072;14.470;2023-06-14T06:08:33;23.50;68.70
14577;DHT22;7375;46.072;14.470;2023-06-14T06:11:00;23.50;68.60
14577;DHT22;7375;46.072;14.470;2023-06-14T06:13:27;23.50;68.50
14577;DHT22;7375;46.072;14.470;2023-06-14T06:15:55;23.60;68.40
14577;DHT22;7375;46.072;14.470;2023-06-14T06:18:22;23.60;68.20
14577;DHT22;7375;46.072;14.470;2023-06-14T06:20:49;23.60;68.10
14577;DHT22;7375;46.072;14.470;2023-06-14T06:23:15;23.60;67.80
14577;DHT22;7375;46.072;14.470;2023-06-14T06:25:42;23.70;67.90
14577;DHT22;7375;46.072;14.470;2023-06-14T06:28:09;23.70;67.80
14577;DHT22;7375;46.072;14.470;2023-06-14T06:30:36;23.70;67.80
14577;DHT22;7375;46.072;14.470;2023-06-14T06:33:04;23.70;67.80
14577;DHT22;7375;46.072;14.470;2023-06-14T06:35:31;23.70;67.70
14577;DHT22;7375;46.072;14.470;2023-06-14T06:37:58;23.70;67.70
14577;DHT22;7375;46.072;14.470;2023-06-14T06:40:25;23.70;67.70
14577;DHT22;7375;46.072;14.470;2023-06-14T06:42:51;23.70;67.60
14577;DHT22;7375;46.072;14.470;2023-06-14T06:45:18;23.70;67.60
14577;DHT22;7375;46.072;14.470;2023-06-14T06:47:45;23.70;67.50
14577;DHT22;7375;46.072;14.470;2023-06-14T06:50:13;23.80;67.60
14577;DHT22;7375;46.072;14.470;2023-06-14T06:52:40;23.80;67.60
14577;DHT22;7375;46.072;14.470;2023-06-14T06:55:06;23.80;67.50
14577;DHT22;7375;46.072;14.470;2023-06-14T06:57:34;23.80;67.50
14577;DHT22;7375;46.072;14.470;2023-06-14T07:00:00;23.80;67.40
14577;DHT22;7375;46.072;14.470;2023-06-14T07:02:28;23.80;67.40
14577;DHT22;7375;46.072;14.470;2023-06-14T07:04:56;23.80;67.30
14577;DHT22;7375;46.072;14.470;2023-06-14T07:07:24;23.80;67.20
14577;DHT22;7375;46.072;14.470;2023-06-14T07:09:51;23.90;67.20
14577;DHT22;7375;46.072;14.470;2023-06-14T07:12:17;23.90;67.00
14577;DHT22;7375;46.072;14.470;2023-06-14T07:14:44;23.90;66.90
14577;DHT22;7375;46.072;14.470;2023-06-14T07:17:11;23.90;66.70
14577;DHT22;7375;46.072;14.470;2023-06-14T07:19:41;23.90;66.70
14577;DHT22;7375;46.072;14.470;2023-06-14T07:22:12;23.90;66.60
14577;DHT22;7375;46.072;14.470;2023-06-14T07:24:40;23.90;66.50
14577;DHT22;7375;46.072;14.470;2023-06-14T07:27:07;23.90;66.40
14577;DHT22;7375;46.072;14.470;2023-06-14T07:29:34;23.90;66.30
14577;DHT22;7375;46.072;14.470;2023-06-14T07:32:00;23.90;66.30
14577;DHT22;7375;46.072;14.470;2023-06-14T07:34:27;24.00;66.30
14577;DHT22;7375;46.072;14.470;2023-06-14T07:36:53;24.00;66.20
14577;DHT22;7375;46.072;14.470;2023-06-14T07:39:20;24.00;66.30
14577;DHT22;7375;46.072;14.470;2023-06-14T07:41:49;24.00;66.20
14577;DHT22;7375;46.072;14.470;2023-06-14T07:44:15;24.00;66.10
14577;DHT22;7375;46.072;14.470;2023-06-14T07:46:42;24.00;66.20
14577;DHT22;7375;46.072;14.470;2023-06-14T07:49:09;24.00;66.20
14577;DHT22;7375;46.072;14.470;2023-06-14T07:51:36;24.00;66.10
14577;DHT22;7375;46.072;14.470;2023-06-14T07:54:03;24.00;66.00
14577;DHT22;7375;46.072;14.470;2023-06-14T07:56:30;24.00;66.10
14577;DHT22;7375;46.072;14.470;2023-06-14T07:58:58;24.00;66.10
14577;DHT22;7375;46.072;14.470;2023-06-14T08:01:24;24.10;66.10
14577;DHT22;7375;46.072;14.470;2023-06-14T08:03:53;24.00;66.00
14577;DHT22;7375;46.072;14.470;2023-06-14T08:06:19;24.10;66.10
14577;DHT22;7375;46.072;14.470;2023-06-14T08:08:46;24.10;66.00
14577;DHT22;7375;46.072;14.470;2023-06-14T08:11:13;24.00;65.90
14577;DHT22;7375;46.072;14.470;2023-06-14T08:13:39;24.10;66.00
14577;DHT22;7375;46.072;14.470;2023-06-14T08:16:07;24.10;65.90
14577;DHT22;7375;46.072;14.470;2023-06-14T08:18:34;24.10;65.90
14577;DHT22;7375;46.072;14.470;2023-06-14T08:21:01;24.10;65.80
14577;DHT22;7375;46.072;14.470;2023-06-14T08:23:28;24.10;65.90
14577;DHT22;7375;46.072;14.470;2023-06-14T08:25:54;24.10;65.80
14577;DHT22;7375;46.072;14.470;2023-06-14T08:28:21;24.10;65.80
14577;DHT22;7375;46.072;14.470;2023-06-14T08:30:48;24.10;65.70
14577;DHT22;7375;46.072;14.470;2023-06-14T08:33:16;24.10;65.70
14577;DHT22;7375;46.072;14.470;2023-06-14T08:35:42;24.10;65.70
14577;DHT22;7375;46.072;14.470;2023-06-14T08:38:09;24.10;65.60
14577;DHT22;7375;46.072;14.470;2023-06-14T08:40:37;24.10;65.60
14577;DHT22;7375;46.072;14.470;2023-06-14T08:43:04;24.20;65.70
14577;DHT22;7375;46.072;14.470;2023-06-14T08:45:31;24.10;65.60
14577;DHT22;7375;46.072;14.470;2023-06-14T08:47:58;24.10;65.50
14577;DHT22;7375;46.072;14.470;2023-06-14T08:50:27;24.20;65.60
14577;DHT22;7375;46.072;14.470;2023-06-14T08:52:55;24.10;65.50
14577;DHT22;7375;46.072;14.470;2023-06-14T08:55:25;24.10;65.50
14577;DHT22;7375;46.072;14.470;2023-06-14T08:57:54;24.10;65.40
14577;DHT22;7375;46.072;14.470;2023-06-14T09:00:21;24.20;65.50
14577;DHT22;7375;46.072;14.470;2023-06-14T09:02:49;24.20;65.40
14577;DHT22;7375;46.072;14.470;2023-06-14T09:05:21;24.20;65.40
14577;DHT22;7375;46.072;14.470;2023-06-14T09:07:49;24.20;65.40
14577;DHT22;7375;46.072;14.470;2023-06-14T09:10:16;24.20;65.40
14577;DHT22;7375;46.072;14.470;2023-06-14T09:12:43;24.20;65.30
14577;DHT22;7375;46.072;14.470;2023-06-14T09:15:10;24.20;65.30
14577;DHT22;7375;46.072;14.470;2023-06-14T09:17:37;24.20;65.30
14577;DHT22;7375;46.072;14.470;2023-06-14T09:20:04;24.20;65.30
14577;DHT22;7375;46.072;14.470;2023-06-14T09:22:34;24.20;65.20
14577;DHT22;7375;46.072;14.470;2023-06-14T09:25:02;24.20;65.80
14577;DHT22;7375;46.072;14.470;2023-06-14T09:27:30;24.20;65.20
14577;DHT22;7375;46.072;14.470;2023-06-14T09:29:56;24.20;65.20
14577;DHT22;7375;46.072;14.470;2023-06-14T09:32:23;24.20;65.20
14577;DHT22;7375;46.072;14.470;2023-06-14T09:34:50;24.20;65.10
14577;DHT22;7375;46.072;14.470;2023-06-14T09:37:26;24.20;65.10
14577;DHT22;7375;46.072;14.470;2023-06-14T09:39:53;24.20;65.10
14577;DHT22;7375;46.072;14.470;2023-06-14T09:42:21;24.20;65.10
14577;DHT22;7375;46.072;14.470;2023-06-14T09:44:51;24.20;65.10
14577;DHT22;7375;46.072;14.470;2023-06-14T09:47:18;24.20;65.00
14577;DHT22;7375;46.072;14.470;2023-06-14T09:49:45;24.20;65.00
14577;DHT22;7375;46.072;14.470;2023-06-14T09:52:13;24.20;65.00
14577;DHT22;7375;46.072;14.470;2023-06-14T09:54:41;24.20;65.00
14577;DHT22;7375;46.072;14.470;2023-06-14T09:57:09;24.20;64.90
14577;DHT22;7375;46.072;14.470;2023-06-14T09:59:38;24.20;64.90
14577;DHT22;7375;46.072;14.470;2023-06-14T10:02:09;24.20;65.00
14577;DHT22;7375;46.072;14.470;2023-06-14T10:04:38;24.20;64.90
14577;DHT22;7375;46.072;14.470;2023-06-14T10:07:06;24.20;64.90
14577;DHT22;7375;46.072;14.470;2023-06-14T10:09:33;24.20;64.90
14577;DHT22;7375;46.072;14.470;2023-06-14T10:12:00;24.20;64.90
14577;DHT22;7375;46.072;14.470;2023-06-14T10:14:27;24.20;64.90
14577;DHT22;7375;46.072;14.470;2023-06-14T10:16:59;24.20;64.90
14577;DHT22;7375;46.072;14.470;2023-06-14T10:19:27;24.20;64.80
14577;DHT22;7375;46.072;14.470;2023-06-14T10:22:00;24.20;64.80
14577;DHT22;7375;46.072;14.470;2023-06-14T10:24:29;24.20;64.80
14577;DHT22;7375;46.072;14.470;2023-06-14T10:26:57;24.20;64.80
14577;DHT22;7375;46.072;14.470;2023-06-14T10:29:24;24.20;64.80
14577;DHT22;7375;46.072;14.470;2023-06-14T10:31:55;24.20;64.80
14577;DHT22;7375;46.072;14.470;2023-06-14T10:34:24;24.20;64.80
14577;DHT22;7375;46.072;14.470;2023-06-14T10:37:01;24.20;64.80
14577;DHT22;7375;46.072;14.470;2023-06-14T10:39:28;24.20;64.70
14577;DHT22;7375;46.072;14.470;2023-06-14T10:41:55;24.20;64.70
14577;DHT22;7375;46.072;14.470;2023-06-14T10:44:38;24.20;64.70
14577;DHT22;7375;46.072;14.470;2023-06-14T10:47:25;24.20;64.70
14577;DHT22;7375;46.072;14.470;2023-06-14T10:49:53;24.20;64.70
14577;DHT22;7375;46.072;14.470;2023-06-14T10:52:22;24.20;64.70
14577;DHT22;7375;46.072;14.470;2023-06-14T10:55:08;24.30;64.70
14577;DHT22;7375;46.072;14.470;2023-06-14T10:57:40;24.20;64.60
14577;DHT22;7375;46.072;14.470;2023-06-14T11:00:08;24.20;64.60
14577;DHT22;7375;46.072;14.470;2023-06-14T11:05:52;24.20;64.60
14577;DHT22;7375;46.072;14.470;2023-06-14T11:08:24;24.20;64.60
14577;DHT22;7375;46.072;14.470;2023-06-14T11:10:53;24.20;64.60
14577;DHT22;7375;46.072;14.470;2023-06-14T11:13:20;24.20;64.60
14577;DHT22;7375;46.072;14.470;2023-06-14T11:15:50;24.30;64.70
14577;DHT22;7375;46.072;14.470;2023-06-14T11:18:18;24.30;64.70
14577;DHT22;7375;46.072;14.470;2023-06-14T11:20:50;24.30;64.70
14577;DHT22;7375;46.072;14.470;2023-06-14T11:23:20;24.30;64.70
14577;DHT22;7375;46.072;14.470;2023-06-14T11:25:49;24.20;64.60
14577;DHT22;7375;46.072;14.470;2023-06-14T11:28:16;24.20;64.60
14577;DHT22;7375;46.072;14.470;2023-06-14T11:30:42;24.20;64.50
14577;DHT22;7375;46.072;14.470;2023-06-14T11:33:09;24.30;64.60
14577;DHT22;7375;46.072;14.470;2023-06-14T11:35:37;24.20;64.50
14577;DHT22;7375;46.072;14.470;2023-06-14T11:38:05;24.30;64.60
14577;DHT22;7375;46.072;14.470;2023-06-14T11:40:31;24.20;64.50
14577;DHT22;7375;46.072;14.470;2023-06-14T11:42:58;24.20;64.50
14577;DHT22;7375;46.072;14.470;2023-06-14T11:45:26;24.20;64.50
14577;DHT22;7375;46.072;14.470;2023-06-14T11:47:54;24.20;64.50
14577;DHT22;7375;46.072;14.470;2023-06-14T11:50:21;24.30;64.60
14577;DHT22;7375;46.072;14.470;2023-06-14T11:52:51;24.30;64.60
14577;DHT22;7375;46.072;14.470;2023-06-14T11:55:19;24.30;64.60
14577;DHT22;7375;46.072;14.470;2023-06-14T11:57:46;24.30;64.60
14577;DHT22;7375;46.072;14.470;2023-06-14T12:00:13;24.30;64.60
14577;DHT22;7375;46.072;14.470;2023-06-14T12:02:41;24.30;64.50
14577;DHT22;7375;46.072;14.470;2023-06-14T12:05:08;24.30;64.50
14577;DHT22;7375;46.072;14.470;2023-06-14T12:07:35;24.30;64.50
14577;DHT22;7375;46.072;14.470;2023-06-14T12:10:06;24.30;64.50
14577;DHT22;7375;46.072;14.470;2023-06-14T12:12:39;24.30;64.50
14577;DHT22;7375;46.072;14.470;2023-06-14T12:15:06;24.30;64.50
14577;DHT22;7375;46.072;14.470;2023-06-14T12:17:33;24.30;64.50
14577;DHT22;7375;46.072;14.470;2023-06-14T12:20:04;24.30;64.50
14577;DHT22;7375;46.072;14.470;2023-06-14T12:22:33;24.30;64.50
14577;DHT22;7375;46.072;14.470;2023-06-14T12:25:00;24.30;64.50
14577;DHT22;7375;46.072;14.470;2023-06-14T12:27:28;24.30;64.50
14577;DHT22;7375;46.072;14.470;2023-06-14T12:30:01;24.30;64.40
14577;DHT22;7375;46.072;14.470;2023-06-14T12:32:27;24.30;64.50
14577;DHT22;7375;46.072;14.470;2023-06-14T12:34:54;24.30;64.40
14577;DHT22;7375;46.072;14.470;2023-06-14T12:37:21;24.30;64.40
14577;DHT22;7375;46.072;14.470;2023-06-14T12:39:48;24.30;64.40
14577;DHT22;7375;46.072;14.470;2023-06-14T12:42:16;24.30;64.40
14577;DHT22;7375;46.072;14.470;2023-06-14T12:44:42;24.30;65.00
14577;DHT22;7375;46.072;14.470;2023-06-14T12:47:11;24.30;64.40
14577;DHT22;7375;46.072;14.470;2023-06-14T12:49:38;24.30;64.40
14577;DHT22;7375;46.072;14.470;2023-06-14T12:52:05;24.30;64.40
14577;DHT22;7375;46.072;14.470;2023-06-14T12:54:32;24.30;64.40
14577;DHT22;7375;46.072;14.470;2023-06-14T12:56:59;24.30;64.40
14577;DHT22;7375;46.072;14.470;2023-06-14T12:59:25;24.30;64.40
14577;DHT22;7375;46.072;14.470;2023-06-14T13:01:58;24.30;64.40
14577;DHT22;7375;46.072;14.470;2023-06-14T13:04:26;24.30;64.50
14577;DHT22;7375;46.072;14.470;2023-06-14T13:06:53;24.30;64.50
14577;DHT22;7375;46.072;14.470;2023-06-14T13:09:20;24.30;64.60
14577;DHT22;7375;46.072;14.470;2023-06-14T13:11:46;24.30;64.60
14577;DHT22;7375;46.072;14.470;2023-06-14T13:14:13;24.30;64.50
14577;DHT22;7375;46.072;14.470;2023-06-14T13:16:40;24.30;64.40
14577;DHT22;7375;46.072;14.470;2023-06-14T13:19:07;24.30;64.40
14577;DHT22;7375;46.072;14.470;2023-06-14T13:21:35;24.30;64.40
14577;DHT22;7375;46.072;14.470;2023-06-14T13:24:02;24.30;64.00
14577;DHT22;7375;46.072;14.470;2023-06-14T13:26:28;24.30;64.00
14577;DHT22;7375;46.072;14.470;2023-06-14T13:28:55;24.30;63.20
14577;DHT22;7375;46.072;14.470;2023-06-14T13:31:22;24.30;61.60
14577;DHT22;7375;46.072;14.470;2023-06-14T13:33:48;24.30;60.50
14577;DHT22;7375;46.072;14.470;2023-06-14T13:36:15;24.20;60.20
14577;DHT22;7375;46.072;14.470;2023-06-14T13:38:43;24.20;59.70
14577;DHT22;7375;46.072;14.470;2023-06-14T13:41:10;24.20;59.30
14577;DHT22;7375;46.072;14.470;2023-06-14T13:43:36;24.20;58.80
14577;DHT22;7375;46.072;14.470;2023-06-14T13:46:03;24.20;58.40
14577;DHT22;7375;46.072;14.470;2023-06-14T13:48:30;24.10;58.80
14577;DHT22;7375;46.072;14.470;2023-06-14T13:50:59;24.10;58.80
14577;DHT22;7375;46.072;14.470;2023-06-14T13:53:25;24.10;58.30
14577;DHT22;7375;46.072;14.470;2023-06-14T13:55:53;24.10;58.10
14577;DHT22;7375;46.072;14.470;2023-06-14T13:58:20;24.20;58.60
14577;DHT22;7375;46.072;14.470;2023-06-14T14:00:49;24.20;59.40
14577;DHT22;7375;46.072;14.470;2023-06-14T14:03:16;24.20;59.50
14577;DHT22;7375;46.072;14.470;2023-06-14T14:05:45;24.10;58.90
14577;DHT22;7375;46.072;14.470;2023-06-14T14:08:11;24.20;59.00
14577;DHT22;7375;46.072;14.470;2023-06-14T14:10:38;24.10;58.70
14577;DHT22;7375;46.072;14.470;2023-06-14T14:13:06;24.20;58.50
14577;DHT22;7375;46.072;14.470;2023-06-14T14:15:33;24.20;58.60
14577;DHT22;7375;46.072;14.470;2023-06-14T14:18:00;24.10;58.70
14577;DHT22;7375;46.072;14.470;2023-06-14T14:20:29;24.20;58.90
14577;DHT22;7375;46.072;14.470;2023-06-14T14:22:56;24.10;59.10
14577;DHT22;7375;46.072;14.470;2023-06-14T14:25:23;24.20;59.30
14577;DHT22;7375;46.072;14.470;2023-06-14T14:27:49;24.20;59.50
14577;DHT22;7375;46.072;14.470;2023-06-14T14:30:17;24.20;59.70
14577;DHT22;7375;46.072;14.470;2023-06-14T14:32:48;24.20;59.80
14577;DHT22;7375;46.072;14.470;2023-06-14T14:35:16;24.20;60.00
14577;DHT22;7375;46.072;14.470;2023-06-14T14:37:43;24.20;60.10
14577;DHT22;7375;46.072;14.470;2023-06-14T14:40:10;24.20;60.30
14577;DHT22;7375;46.072;14.470;2023-06-14T14:42:36;24.20;60.40
14577;DHT22;7375;46.072;14.470;2023-06-14T14:45:04;24.20;60.60
14577;DHT22;7375;46.072;14.470;2023-06-14T14:47:32;24.20;60.70
14577;DHT22;7375;46.072;14.470;2023-06-14T14:49:58;24.20;60.80
14577;DHT22;7375;46.072;14.470;2023-06-14T14:52:25;24.20;60.90
14577;DHT22;7375;46.072;14.470;2023-06-14T14:54:52;24.20;61.00
14577;DHT22;7375;46.072;14.470;2023-06-14T14:57:19;24.20;61.00
14577;DHT22;7375;46.072;14.470;2023-06-14T14:59:46;24.20;61.10
14577;DHT22;7375;46.072;14.470;2023-06-14T15:02:12;24.20;61.20
14577;DHT22;7375;46.072;14.470;2023-06-14T15:04:40;24.20;61.20
14577;DHT22;7375;46.072;14.470;2023-06-14T15:07:07;24.20;61.30
14577;DHT22;7375;46.072;14.470;2023-06-14T15:09:34;24.30;61.40
14577;DHT22;7375;46.072;14.470;2023-06-14T15:12:01;24.20;58.10
14577;DHT22;7375;46.072;14.470;2023-06-14T15:14:28;24.20;55.30
14577;DHT22;7375;46.072;14.470;2023-06-14T15:16:54;24.20;55.10
14577;DHT22;7375;46.072;14.470;2023-06-14T15:19:23;24.20;54.80
14577;DHT22;7375;46.072;14.470;2023-06-14T15:21:51;24.10;54.60
14577;DHT22;7375;46.072;14.470;2023-06-14T15:24:17;24.10;54.30
14577;DHT22;7375;46.072;14.470;2023-06-14T15:26:45;24.10;53.70
14577;DHT22;7375;46.072;14.470;2023-06-14T15:29:11;24.00;51.80
14577;DHT22;7375;46.072;14.470;2023-06-14T15:31:38;24.00;52.30
14577;DHT22;7375;46.072;14.470;2023-06-14T15:34:05;24.00;51.70
14577;DHT22;7375;46.072;14.470;2023-06-14T15:36:32;24.00;50.80